createdAt,value
2022-09-12T00:00:49.963Z,20.1
2022-09-12T00:02:49.969Z,20.0
2022-09-12T00:04:49.948Z,19.9
2022-09-12T00:06:49.948Z,19.8
2022-09-12T00:08:49.975Z,19.4
2022-09-12T00:10:50.042Z,19.0
2022-09-12T00:12:49.919Z,18.9
2022-09-12T00:14:49.979Z,18.7
2022-09-12T00:17:19.930Z,18.6
2022-09-12T00:19:19.940Z,18.6
2022-09-12T00:21:19.932Z,18.6
2022-09-12T00:23:19.953Z,18.6
2022-09-12T00:25:19.959Z,18.6
2022-09-12T00:27:20.033Z,18.9
2022-09-12T00:29:20.022Z,18.8
2022-09-12T00:31:20.045Z,18.6
2022-09-12T00:33:19.986Z,18.4
2022-09-12T00:35:19.965Z,18.4
2022-09-12T00:37:19.929Z,18.5
2022-09-12T00:39:19.927Z,18.2
2022-09-12T00:41:19.950Z,18.4
2022-09-12T00:43:20.109Z,18.4
2022-09-12T00:45:19.961Z,18.6
2022-09-12T00:47:19.957Z,18.6
2022-09-12T00:49:19.971Z,18.4
2022-09-12T00:51:19.949Z,18.4
2022-09-12T00:55:19.967Z,18.8
2022-09-12T00:57:20.040Z,18.9
2022-09-12T00:59:19.973Z,19.3
2022-09-12T01:01:20.075Z,19.1
2022-09-12T01:03:19.982Z,19.3
2022-09-12T01:05:20.024Z,19.2
2022-09-12T01:07:20.042Z,19.4
2022-09-12T01:09:20.056Z,19.6
2022-09-12T01:11:19.963Z,19.8
2022-09-12T01:13:19.995Z,20.0
2022-09-12T01:15:20.050Z,20.1
2022-09-12T01:17:20.075Z,20.1
2022-09-12T01:19:20.054Z,19.8
2022-09-12T01:25:19.997Z,19.9
2022-09-12T01:27:29.212Z,19.7
2022-09-12T01:29:29.132Z,19.9
2022-09-12T01:31:29.119Z,20.0
2022-09-12T01:33:29.099Z,19.9
2022-09-12T01:35:29.146Z,19.8
2022-09-12T01:37:29.132Z,19.6
2022-09-12T01:39:29.143Z,19.6
2022-09-12T01:41:29.200Z,19.4
2022-09-12T01:43:29.124Z,19.4
2022-09-12T01:45:29.225Z,19.3
2022-09-12T01:47:29.108Z,19.4
2022-09-12T01:49:29.147Z,19.6
2022-09-12T01:51:29.132Z,19.4
2022-09-12T01:53:29.196Z,19.3
2022-09-12T01:55:29.154Z,19.2
2022-09-12T01:57:29.117Z,19.1
2022-09-12T01:59:29.147Z,19.0
2022-09-12T02:01:29.179Z,19.3
2022-09-12T02:03:29.153Z,19.2
2022-09-12T02:05:29.168Z,19.3
2022-09-12T02:07:29.156Z,19.2
2022-09-12T02:09:29.148Z,19.3
2022-09-12T02:11:29.146Z,19.2
2022-09-12T02:13:29.217Z,19.0
2022-09-12T02:15:29.136Z,19.0
2022-09-12T02:17:29.180Z,19.2
2022-09-12T02:19:29.304Z,19.4
2022-09-12T02:21:29.160Z,19.6
2022-09-12T02:23:29.170Z,19.4
2022-09-12T02:25:29.165Z,19.2
2022-09-12T02:27:29.211Z,19.3
2022-09-12T02:29:29.168Z,19.0
2022-09-12T02:31:29.256Z,19.0
2022-09-12T02:33:29.172Z,19.1
2022-09-12T02:35:29.151Z,18.9
2022-09-12T02:37:29.139Z,18.8
2022-09-12T02:39:59.201Z,19.0
2022-09-12T02:41:59.245Z,19.2
2022-09-12T02:43:59.144Z,19.1
2022-09-12T02:45:59.192Z,19.1
2022-09-12T02:47:59.155Z,19.4
2022-09-12T02:49:59.165Z,19.6
2022-09-12T02:51:59.183Z,19.6
2022-09-12T02:53:59.179Z,19.7
2022-09-12T02:55:59.160Z,19.6
2022-09-12T02:57:59.247Z,19.5
2022-09-12T02:59:59.173Z,19.4
2022-09-12T03:01:59.334Z,19.3
2022-09-12T03:03:59.157Z,19.5
2022-09-12T03:05:59.312Z,19.6
2022-09-12T03:07:59.157Z,19.7
2022-09-12T03:09:59.197Z,19.8
2022-09-12T03:11:59.191Z,19.7
2022-09-12T03:13:59.165Z,19.8
2022-09-12T03:15:59.182Z,19.4
2022-09-12T03:17:59.188Z,19.7
2022-09-12T03:19:59.196Z,19.8
2022-09-12T03:21:59.229Z,19.6
2022-09-12T03:23:59.179Z,19.6
2022-09-12T03:25:59.164Z,19.8
2022-09-12T03:27:59.189Z,19.8
2022-09-12T03:29:59.185Z,19.9
2022-09-12T03:31:59.211Z,20.0
2022-09-12T03:33:59.173Z,20.0
2022-09-12T03:35:59.190Z,19.9
2022-09-12T03:37:59.251Z,20.1
2022-09-12T03:39:59.284Z,20.1
2022-09-12T03:41:59.255Z,20.2
2022-09-12T03:43:59.265Z,20.3
2022-09-12T03:45:59.240Z,20.4
2022-09-12T03:47:59.232Z,19.9
2022-09-12T03:49:59.256Z,19.7
2022-09-12T03:51:59.260Z,19.8
2022-09-12T03:53:59.190Z,19.7
2022-09-12T03:55:59.261Z,19.9
2022-09-12T03:57:59.197Z,19.9
2022-09-12T03:59:59.227Z,19.9
2022-09-12T04:01:59.404Z,19.9
2022-09-12T04:03:59.202Z,19.7
2022-09-12T04:05:59.212Z,19.6
2022-09-12T04:07:59.202Z,19.7
2022-09-12T04:09:59.227Z,19.9
2022-09-12T04:11:59.307Z,19.8
2022-09-12T04:13:59.201Z,20.0
2022-09-12T04:15:59.341Z,20.1
2022-09-12T04:18:02.426Z,19.8
2022-09-12T04:19:59.204Z,19.7
2022-09-12T04:21:59.188Z,19.8
2022-09-12T04:23:59.201Z,19.9
2022-09-12T04:25:59.212Z,19.7
2022-09-12T04:27:59.236Z,19.6
2022-09-12T04:30:29.308Z,19.6
2022-09-12T04:32:29.296Z,19.4
2022-09-12T04:34:29.274Z,19.6
2022-09-12T04:36:29.228Z,19.5
2022-09-12T04:38:29.280Z,19.6
2022-09-12T04:40:29.226Z,19.8
2022-09-12T04:42:31.327Z,19.8
2022-09-12T04:44:29.228Z,19.6
2022-09-12T04:46:29.246Z,19.8
2022-09-12T04:48:29.319Z,19.7
2022-09-12T04:50:29.249Z,19.6
2022-09-12T04:52:29.270Z,19.5
2022-09-12T04:54:29.270Z,19.6
2022-09-12T04:56:29.283Z,19.8
2022-09-12T04:58:29.325Z,19.8
2022-09-12T05:00:29.260Z,19.8
2022-09-12T05:02:29.379Z,19.8
2022-09-12T05:04:29.254Z,19.9
2022-09-12T05:06:30.036Z,19.7
2022-09-12T05:08:29.651Z,19.4
2022-09-12T05:10:29.246Z,19.3
2022-09-12T05:12:29.325Z,19.2
2022-09-12T05:14:29.340Z,19.4
2022-09-12T05:16:29.388Z,19.3
2022-09-12T05:18:29.403Z,19.4
2022-09-12T05:20:29.272Z,19.3
2022-09-12T05:22:29.386Z,19.3
2022-09-12T05:24:29.285Z,19.4
2022-09-12T05:26:29.272Z,19.4
2022-09-12T05:28:29.409Z,19.3
2022-09-12T05:30:29.393Z,19.4
2022-09-12T05:32:32.245Z,19.3
2022-09-12T05:34:32.327Z,19.0
2022-09-12T05:36:29.398Z,19.0
2022-09-12T05:38:29.274Z,19.0
2022-09-12T05:40:29.310Z,18.6
2022-09-12T05:42:29.342Z,18.8
2022-09-12T05:44:29.373Z,18.9
2022-09-12T05:46:29.268Z,18.9
2022-09-12T05:48:29.351Z,19.1
2022-09-12T05:50:29.294Z,19.3
2022-09-12T05:52:29.399Z,19.2
2022-09-12T05:54:31.677Z,19.2
2022-09-12T05:56:29.326Z,18.9
2022-09-12T05:58:29.676Z,18.9
2022-09-12T06:00:31.612Z,19.1
2022-09-12T06:02:29.323Z,19.2
2022-09-12T06:04:29.290Z,19.0
2022-09-12T06:06:29.286Z,19.4
2022-09-12T06:08:29.266Z,19.4
2022-09-12T06:10:29.306Z,19.3
2022-09-12T06:12:30.388Z,19.5
2022-09-12T06:14:29.368Z,19.5
2022-09-12T06:16:29.847Z,19.7
2022-09-12T06:18:59.404Z,19.6
2022-09-12T06:20:59.294Z,19.5
2022-09-12T06:22:59.322Z,19.7
2022-09-12T06:24:59.312Z,19.9
2022-09-12T06:26:59.326Z,20.0
2022-09-12T06:28:59.356Z,20.2
2022-09-12T06:30:59.304Z,20.2
2022-09-12T06:32:59.341Z,20.3
2022-09-12T06:34:59.324Z,20.3
2022-09-12T06:36:59.458Z,20.4
2022-09-12T06:38:59.321Z,20.3
2022-09-12T06:40:59.287Z,20.4
2022-09-12T06:42:59.312Z,20.1
2022-09-12T06:44:59.304Z,20.2
2022-09-12T06:46:59.292Z,20.1
2022-09-12T06:48:59.336Z,19.8
2022-09-12T06:50:59.305Z,19.7
2022-09-12T06:52:59.330Z,19.7
2022-09-12T06:54:59.366Z,19.9
2022-09-12T06:56:59.298Z,20.2
2022-09-12T06:58:59.334Z,20.3
2022-09-12T07:00:59.589Z,20.3
2022-09-12T07:02:59.345Z,20.1
2022-09-12T07:04:59.371Z,20.2
2022-09-12T07:06:59.304Z,20.1
2022-09-12T07:08:59.440Z,20.3
2022-09-12T07:10:59.393Z,20.2
2022-09-12T07:12:59.468Z,19.9
2022-09-12T07:14:59.340Z,19.8
2022-09-12T07:16:59.394Z,19.5
2022-09-12T07:18:59.317Z,19.8
2022-09-12T07:20:59.443Z,19.9
2022-09-12T07:22:59.366Z,19.9
2022-09-12T07:24:59.350Z,19.7
2022-09-12T07:26:59.380Z,20.0
2022-09-12T07:29:13.144Z,20.0
2022-09-12T07:30:59.390Z,20.0
2022-09-12T07:32:59.438Z,20.0
2022-09-12T07:34:59.324Z,20.2
2022-09-12T07:36:59.319Z,20.4
2022-09-12T07:38:59.341Z,20.3
2022-09-12T07:40:59.361Z,20.4
2022-09-12T07:42:59.349Z,20.4
2022-09-12T07:44:59.369Z,20.1
2022-09-12T07:46:59.349Z,20.3
2022-09-12T07:48:59.358Z,20.6
2022-09-12T07:50:59.368Z,20.7
2022-09-12T07:52:59.350Z,20.8
2022-09-12T07:54:59.531Z,20.8
2022-09-12T07:56:59.365Z,20.5
2022-09-12T07:58:59.377Z,20.4
2022-09-12T08:00:59.438Z,20.3
2022-09-12T08:02:59.349Z,20.2
2022-09-12T08:04:59.352Z,20.3
2022-09-12T08:06:59.442Z,20.3
2022-09-12T08:08:59.452Z,20.3
2022-09-12T08:11:29.413Z,20.4
2022-09-12T08:13:29.375Z,20.5
2022-09-12T08:15:29.456Z,20.7
2022-09-12T08:17:29.399Z,20.8
2022-09-12T08:19:29.387Z,21.0
2022-09-12T08:21:29.449Z,20.7
2022-09-12T08:23:29.377Z,20.5
2022-09-12T08:25:29.364Z,20.6
2022-09-12T08:27:29.387Z,20.4
2022-09-12T08:29:29.478Z,20.4
2022-09-12T08:31:29.456Z,20.5
2022-09-12T08:33:29.465Z,20.6
2022-09-12T08:35:29.488Z,20.5
2022-09-12T08:37:29.364Z,20.8
2022-09-12T08:39:10.349Z,20.6
2022-09-12T08:41:10.360Z,21.0
2022-09-12T08:43:10.370Z,21.0
2022-09-12T08:45:10.379Z,20.7
2022-09-12T08:47:10.360Z,20.8
2022-09-12T08:49:10.382Z,20.9
2022-09-12T08:51:10.465Z,20.8
2022-09-12T08:53:40.385Z,20.8
2022-09-12T08:55:40.411Z,20.9
2022-09-12T08:57:40.351Z,21.2
2022-09-12T08:59:40.402Z,21.2
2022-09-12T09:01:40.385Z,21.4
2022-09-12T09:03:40.434Z,21.5
2022-09-12T09:05:40.379Z,21.6
2022-09-12T09:07:40.409Z,21.2
2022-09-12T09:09:40.388Z,21.3
2022-09-12T09:11:40.533Z,21.4
2022-09-12T09:13:40.409Z,21.4
2022-09-12T09:15:40.472Z,21.1
2022-09-12T09:17:40.401Z,20.9
2022-09-12T09:19:40.380Z,20.9
2022-09-12T09:21:40.413Z,21.1
2022-09-12T09:23:40.389Z,21.1
2022-09-12T09:25:40.396Z,21.4
2022-09-12T09:27:41.495Z,21.4
2022-09-12T09:29:40.419Z,21.1
2022-09-12T09:31:40.412Z,21.0
2022-09-12T09:33:40.503Z,21.1
2022-09-12T09:35:40.483Z,21.1
2022-09-12T09:37:40.429Z,21.0
2022-09-12T09:39:40.474Z,20.8
2022-09-12T09:41:40.469Z,20.6
2022-09-12T09:43:40.442Z,20.8
2022-09-12T09:45:43.381Z,21.3
2022-09-12T09:47:40.455Z,21.2
2022-09-12T09:49:40.461Z,21.2
2022-09-12T09:51:40.451Z,21.1
2022-09-12T09:53:40.445Z,21.0
2022-09-12T09:55:40.465Z,20.8
2022-09-12T09:57:40.459Z,20.5
2022-09-12T09:59:40.450Z,20.5
2022-09-12T10:01:40.465Z,20.3
2022-09-12T10:03:40.461Z,19.9
2022-09-12T10:05:40.424Z,19.8
2022-09-12T10:07:40.432Z,19.9
2022-09-12T10:09:40.435Z,19.7
2022-09-12T10:11:45.116Z,19.5
2022-09-12T10:13:40.435Z,19.6
2022-09-12T10:15:40.466Z,19.7
2022-09-12T10:17:40.427Z,20.0
2022-09-12T10:19:40.463Z,19.7
2022-09-12T10:21:41.434Z,19.8
2022-09-12T10:23:40.467Z,19.6
2022-09-12T10:25:40.459Z,19.3
2022-09-12T10:27:40.491Z,19.5
2022-09-12T10:29:40.461Z,19.6
2022-09-12T10:31:40.489Z,19.7
2022-09-12T10:33:40.447Z,19.4
2022-09-12T10:35:40.489Z,19.3
2022-09-12T10:37:40.503Z,19.1
2022-09-12T10:39:40.533Z,19.2
2022-09-12T10:41:40.561Z,19.3
2022-09-12T10:43:40.545Z,19.5
2022-09-12T10:45:40.567Z,19.2
2022-09-12T10:47:40.484Z,19.2
2022-09-12T10:49:40.492Z,19.4
2022-09-12T10:51:40.604Z,19.3
2022-09-12T10:53:40.527Z,19.4
2022-09-12T10:56:10.520Z,19.7
2022-09-12T10:58:10.539Z,19.5
2022-09-12T11:00:10.549Z,19.8
2022-09-12T11:02:10.560Z,19.9
2022-09-12T11:04:10.606Z,19.9
2022-09-12T11:06:10.614Z,19.9
2022-09-12T11:08:10.628Z,20.0
2022-09-12T11:10:10.520Z,20.0
2022-09-12T11:12:10.498Z,20.3
2022-09-12T11:14:10.520Z,20.0
2022-09-12T11:16:10.628Z,20.0
2022-09-12T11:18:10.511Z,20.0
2022-09-12T11:20:10.523Z,20.2
2022-09-12T11:22:10.496Z,20.1
2022-09-12T11:24:10.634Z,20.3
2022-09-12T11:26:10.587Z,20.1
2022-09-12T11:28:10.599Z,20.0
2022-09-12T11:30:10.614Z,20.1
2022-09-12T11:32:10.626Z,20.4
2022-09-12T11:34:10.568Z,20.5
2022-09-12T11:36:10.535Z,20.7
2022-09-12T11:38:10.566Z,20.9
2022-09-12T11:40:10.748Z,20.8
2022-09-12T11:42:10.568Z,20.7
2022-09-12T11:44:10.626Z,20.4
2022-09-12T11:46:10.682Z,20.5
2022-09-12T11:48:10.641Z,20.4
2022-09-12T11:50:10.615Z,20.2
2022-09-12T11:52:10.941Z,20.1
2022-09-12T11:54:10.634Z,20.0
2022-09-12T11:56:10.543Z,20.0
2022-09-12T11:58:10.568Z,20.0
2022-09-12T12:00:10.631Z,19.8
2022-09-12T12:02:10.687Z,19.9
2022-09-12T12:04:10.720Z,19.9
2022-09-12T12:06:10.695Z,19.9
2022-09-12T12:08:10.640Z,20.0
2022-09-12T12:10:10.737Z,20.2
2022-09-12T12:12:10.678Z,20.2
2022-09-12T12:14:10.616Z,20.4
2022-09-12T12:16:10.671Z,20.2
2022-09-12T12:18:10.651Z,20.3
2022-09-12T12:20:10.753Z,20.2
2022-09-12T12:22:11.745Z,20.4
2022-09-12T12:24:10.737Z,20.3
2022-09-12T12:26:10.681Z,20.6
2022-09-12T12:28:10.755Z,20.2
2022-09-12T12:30:10.628Z,20.2
2022-09-12T12:32:10.632Z,20.2
2022-09-12T12:34:10.694Z,20.3
2022-09-12T12:36:10.673Z,20.1
2022-09-12T12:38:10.604Z,20.1
2022-09-12T12:40:10.694Z,20.3
2022-09-12T12:42:10.871Z,20.0
2022-09-12T12:44:10.771Z,20.1
2022-09-12T12:46:10.742Z,20.2
2022-09-12T12:48:10.669Z,20.1
2022-09-12T12:50:10.727Z,20.1
2022-09-12T12:52:10.743Z,20.1
2022-09-12T12:54:13.030Z,20.2
2022-09-12T12:56:40.771Z,19.9
2022-09-12T12:58:40.762Z,20.0
2022-09-12T13:00:40.747Z,20.0
2022-09-12T13:02:40.670Z,19.9
2022-09-12T13:04:40.694Z,20.0
2022-09-12T13:06:40.744Z,19.9
2022-09-12T13:08:40.752Z,20.0
2022-09-12T13:10:40.736Z,19.8
2022-09-12T13:12:40.938Z,19.6
2022-09-12T13:14:40.728Z,19.7
2022-09-12T13:16:40.844Z,19.8
2022-09-12T13:18:40.669Z,19.6
2022-09-12T13:20:40.708Z,19.5
2022-09-12T13:22:40.689Z,19.6
2022-09-12T13:24:40.726Z,19.5
2022-09-12T13:26:40.844Z,19.3
2022-09-12T13:28:40.867Z,19.4
2022-09-12T13:30:40.817Z,19.4
2022-09-12T13:32:40.809Z,19.0
2022-09-12T13:34:40.723Z,18.9
2022-09-12T13:36:40.739Z,18.8
2022-09-12T13:38:40.729Z,18.8
2022-09-12T13:40:40.750Z,18.6
2022-09-12T13:42:40.772Z,18.9
2022-09-12T13:44:40.806Z,18.8
2022-09-12T13:46:40.825Z,18.6
2022-09-12T13:48:41.029Z,18.8
2022-09-12T13:50:40.954Z,19.1
2022-09-12T13:52:41.036Z,19.0
2022-09-12T13:54:40.993Z,19.1
2022-09-12T13:56:40.764Z,19.2
2022-09-12T13:58:40.765Z,19.0
2022-09-12T14:00:40.777Z,19.0
2022-09-12T14:02:40.878Z,19.2
2022-09-12T14:04:40.711Z,19.4
2022-09-12T14:06:41.621Z,19.4
2022-09-12T14:08:41.211Z,19.3
2022-09-12T14:10:41.043Z,19.0
2022-09-12T14:12:41.878Z,18.9
2022-09-12T14:14:41.147Z,18.9
2022-09-12T14:16:40.817Z,18.9
2022-09-12T14:18:41.099Z,18.9
2022-09-12T14:20:40.857Z,18.7
2022-09-12T14:22:40.730Z,18.5
2022-09-12T14:24:40.760Z,18.7
2022-09-12T14:26:40.733Z,18.7
2022-09-12T14:28:40.764Z,18.6
2022-09-12T14:30:40.862Z,18.6
2022-09-12T14:32:40.783Z,19.0
2022-09-12T14:34:40.761Z,19.0
2022-09-12T14:36:40.735Z,19.2
2022-09-12T14:38:40.691Z,19.1
2022-09-12T14:40:40.776Z,19.3
2022-09-12T14:42:40.750Z,19.3
2022-09-12T14:44:40.777Z,19.5
2022-09-12T14:46:40.900Z,19.6
2022-09-12T14:48:40.924Z,19.4
2022-09-12T14:50:40.842Z,19.1
2022-09-12T14:52:40.713Z,19.4
2022-09-12T14:54:40.818Z,19.6
2022-09-12T14:56:40.762Z,19.9
2022-09-12T14:59:10.807Z,20.0
2022-09-12T15:01:10.847Z,20.0
2022-09-12T15:03:10.805Z,19.8
2022-09-12T15:05:10.832Z,19.6
2022-09-12T15:07:10.811Z,19.7
2022-09-12T15:09:10.878Z,19.8
2022-09-12T15:11:10.777Z,20.1
2022-09-12T15:13:10.795Z,20.0
2022-09-12T15:15:10.841Z,19.9
2022-09-12T15:17:10.791Z,19.7
2022-09-12T15:19:10.870Z,19.8
2022-09-12T15:21:10.851Z,20.1
2022-09-12T15:23:10.865Z,20.3
2022-09-12T15:25:10.859Z,20.3
2022-09-12T15:27:10.801Z,20.2
2022-09-12T15:29:18.270Z,20.3
2022-09-12T15:31:18.506Z,20.3
2022-09-12T15:33:18.415Z,20.2
2022-09-12T15:35:18.325Z,20.3
2022-09-12T15:37:18.337Z,20.3
2022-09-12T15:39:18.339Z,20.4
2022-09-12T15:41:18.400Z,20.6
2022-09-12T15:43:18.373Z,20.3
2022-09-12T15:45:18.439Z,20.4
2022-09-12T15:47:18.448Z,20.3
2022-09-12T15:49:18.444Z,20.4
2022-09-12T15:51:18.359Z,20.4
2022-09-12T15:53:18.378Z,20.3
2022-09-12T15:55:18.369Z,20.1
2022-09-12T15:57:18.411Z,20.2
2022-09-12T15:59:18.392Z,20.4
2022-09-12T16:01:18.762Z,20.6
2022-09-12T16:03:18.436Z,20.8
2022-09-12T16:05:18.477Z,20.8
2022-09-12T16:07:18.363Z,20.6
2022-09-12T16:09:18.353Z,20.6
2022-09-12T16:11:18.419Z,20.5
2022-09-12T16:13:18.374Z,20.7
2022-09-12T16:15:18.441Z,20.9
2022-09-12T16:17:18.714Z,21.0
2022-09-12T16:19:18.460Z,21.0
2022-09-12T16:21:18.486Z,21.0
2022-09-12T16:23:18.401Z,20.9
2022-09-12T16:25:18.405Z,21.0
2022-09-12T16:27:18.350Z,21.0
2022-09-12T16:29:18.393Z,21.0
2022-09-12T16:31:18.488Z,21.2
2022-09-12T16:33:18.479Z,21.2
2022-09-12T16:35:18.458Z,21.0
2022-09-12T16:37:18.384Z,20.7
2022-09-12T16:39:18.385Z,20.6
2022-09-12T16:41:18.432Z,20.5
2022-09-12T16:43:18.410Z,20.7
2022-09-12T16:45:18.422Z,20.5
2022-09-12T16:47:18.430Z,20.7
2022-09-12T16:49:18.522Z,20.4
2022-09-12T16:51:18.487Z,20.6
2022-09-12T16:53:18.381Z,20.4
2022-09-12T16:55:18.396Z,20.3
2022-09-12T16:57:18.409Z,20.1
2022-09-12T16:59:18.439Z,19.9
2022-09-12T17:01:18.465Z,19.6
2022-09-12T17:03:18.466Z,19.6
2022-09-12T17:05:18.477Z,19.5
2022-09-12T17:07:18.500Z,19.7
2022-09-12T17:09:18.399Z,19.9
2022-09-12T17:11:18.445Z,19.8
2022-09-12T17:13:18.459Z,19.7
2022-09-12T17:15:18.472Z,19.9
2022-09-12T17:17:18.481Z,20.1
2022-09-12T17:19:18.444Z,20.0
2022-09-12T17:21:18.505Z,19.8
2022-09-12T17:23:18.491Z,19.6
2022-09-12T17:25:18.387Z,19.8
2022-09-12T17:27:48.389Z,20.0
2022-09-12T17:29:48.463Z,20.0
2022-09-12T17:31:48.449Z,19.7
2022-09-12T17:33:48.708Z,19.7
2022-09-12T17:35:48.482Z,20.0
2022-09-12T17:37:48.497Z,20.0
2022-09-12T17:39:48.516Z,19.8
2022-09-12T17:41:48.755Z,19.7
2022-09-12T17:43:48.611Z,19.9
2022-09-12T17:45:48.469Z,19.9
2022-09-12T17:47:48.474Z,19.9
2022-09-12T17:49:48.500Z,20.1
2022-09-12T17:51:48.504Z,20.0
2022-09-12T17:53:48.543Z,20.3
2022-09-12T17:55:51.494Z,20.3
2022-09-12T17:57:48.448Z,20.3
2022-09-12T17:59:48.457Z,20.4
2022-09-12T18:01:48.643Z,20.6
2022-09-12T18:03:48.618Z,20.4
2022-09-12T18:05:48.584Z,20.3
2022-09-12T18:07:48.561Z,20.4
2022-09-12T18:09:48.513Z,20.5
2022-09-12T18:11:48.433Z,20.6
2022-09-12T18:13:48.536Z,20.6
2022-09-12T18:15:48.533Z,20.4
2022-09-12T18:17:48.477Z,20.1
2022-09-12T18:19:52.882Z,20.0
2022-09-12T18:21:48.541Z,20.1
2022-09-12T18:23:48.577Z,20.3
2022-09-12T18:25:48.473Z,20.1
2022-09-12T18:27:48.447Z,19.9
2022-09-12T18:30:04.286Z,20.0
2022-09-12T18:31:48.475Z,20.1
2022-09-12T18:33:48.604Z,20.4
2022-09-12T18:35:48.570Z,20.4
2022-09-12T18:37:48.510Z,20.5
2022-09-12T18:39:48.604Z,20.6
2022-09-12T18:41:48.444Z,20.5
2022-09-12T18:43:48.677Z,20.1
2022-09-12T18:45:48.511Z,20.0
2022-09-12T18:47:48.519Z,20.1
2022-09-12T18:49:48.547Z,20.1
2022-09-12T18:51:48.540Z,20.1
2022-09-12T18:53:48.656Z,20.0
2022-09-12T18:55:48.576Z,20.0
2022-09-12T18:57:48.478Z,20.3
2022-09-12T18:59:48.515Z,20.6
2022-09-12T19:01:48.562Z,20.4
2022-09-12T19:03:48.606Z,20.7
2022-09-12T19:05:48.545Z,20.7
2022-09-12T19:07:48.577Z,20.6
2022-09-12T19:09:48.548Z,20.4
2022-09-12T19:11:48.591Z,20.6
2022-09-12T19:13:48.553Z,20.5
2022-09-12T19:15:48.601Z,20.4
2022-09-12T19:17:48.467Z,20.5
2022-09-12T19:19:48.536Z,20.6
2022-09-12T19:21:48.579Z,20.5
2022-09-12T19:24:18.580Z,20.3
2022-09-12T19:26:18.598Z,20.3
2022-09-12T19:28:18.498Z,20.3
2022-09-12T19:30:18.491Z,20.0
2022-09-12T19:32:18.493Z,19.8
2022-09-12T19:34:18.501Z,19.5
2022-09-12T19:36:41.341Z,19.6
2022-09-12T19:38:18.465Z,19.5
2022-09-12T19:40:18.613Z,19.5
2022-09-12T19:42:18.661Z,19.6
2022-09-12T19:44:18.742Z,19.7
2022-09-12T19:46:18.541Z,19.4
2022-09-12T19:48:18.490Z,19.4
2022-09-12T19:50:18.497Z,19.0
2022-09-12T19:52:18.525Z,19.1
2022-09-12T19:54:18.483Z,19.1
2022-09-12T19:56:18.701Z,18.9
2022-09-12T19:58:18.640Z,18.9
2022-09-12T20:00:18.514Z,18.9
2022-09-12T20:02:18.592Z,18.9
2022-09-12T20:04:18.532Z,18.9
2022-09-12T20:06:18.572Z,19.0
2022-09-12T20:08:18.600Z,19.0
2022-09-12T20:10:18.528Z,18.9
2022-09-12T20:12:18.538Z,18.9
2022-09-12T20:14:18.523Z,19.1
2022-09-12T20:16:21.702Z,19.3
2022-09-12T20:18:18.564Z,19.6
2022-09-12T20:20:18.579Z,19.8
2022-09-12T20:22:18.616Z,19.9
2022-09-12T20:24:18.499Z,19.8
2022-09-12T20:26:18.645Z,19.6
2022-09-12T20:28:18.529Z,19.7
2022-09-12T20:30:18.522Z,19.9
2022-09-12T20:32:18.567Z,20.0
2022-09-12T20:34:18.501Z,20.1
2022-09-12T20:36:18.584Z,20.1
2022-09-12T20:38:18.543Z,20.2
2022-09-12T20:40:18.600Z,20.1
2022-09-12T20:42:18.529Z,20.4
2022-09-12T20:44:18.524Z,20.7
2022-09-12T20:46:21.623Z,20.8
2022-09-12T20:48:18.561Z,20.9
2022-09-12T20:50:18.591Z,21.2
2022-09-12T20:52:18.537Z,20.9
2022-09-12T20:54:18.589Z,21.0
2022-09-12T20:56:18.548Z,20.9
2022-09-12T20:58:18.532Z,20.8
2022-09-12T21:00:18.570Z,20.8
2022-09-12T21:02:18.710Z,21.1
2022-09-12T21:04:18.540Z,21.3
2022-09-12T21:06:18.556Z,21.2
2022-09-12T21:08:18.535Z,21.3
2022-09-12T21:10:18.516Z,21.4
2022-09-12T21:12:18.598Z,21.5
2022-09-12T21:14:18.602Z,21.3
2022-09-12T21:16:18.609Z,21.0
2022-09-12T21:18:18.567Z,20.8
2022-09-12T21:20:48.638Z,20.7
2022-09-12T21:22:48.617Z,20.8
2022-09-12T21:24:48.648Z,20.7
2022-09-12T21:26:48.540Z,20.8
2022-09-12T21:28:48.601Z,20.9
2022-09-12T21:30:48.787Z,20.9
2022-09-12T21:32:48.575Z,20.5
2022-09-12T21:34:48.551Z,20.6
2022-09-12T21:36:48.595Z,20.5
2022-09-12T21:38:48.589Z,20.5
2022-09-12T21:40:48.651Z,20.6
2022-09-12T21:42:48.696Z,20.5
2022-09-12T21:44:48.583Z,20.2
2022-09-12T21:46:48.654Z,20.2
2022-09-12T21:48:48.609Z,20.3
2022-09-12T21:50:48.571Z,20.0
2022-09-12T21:52:48.574Z,20.4
2022-09-12T21:54:48.594Z,20.5
2022-09-12T21:56:48.585Z,20.6
2022-09-12T21:58:48.669Z,20.6
2022-09-12T22:00:48.626Z,20.3
2022-09-12T22:02:48.650Z,19.9
2022-09-12T22:04:48.618Z,19.8
2022-09-12T22:06:48.559Z,19.6
2022-09-12T22:08:48.654Z,19.6
2022-09-12T22:10:48.674Z,19.3
2022-09-12T22:12:48.645Z,19.3
2022-09-12T22:14:48.645Z,19.3
2022-09-12T22:16:48.596Z,19.6
2022-09-12T22:18:48.657Z,19.6
2022-09-12T22:20:48.592Z,19.5
2022-09-12T22:22:48.606Z,19.5
2022-09-12T22:24:48.690Z,19.7
2022-09-12T22:26:48.629Z,19.7
2022-09-12T22:28:48.770Z,19.4
2022-09-12T22:30:48.873Z,19.3
2022-09-12T22:32:48.672Z,19.3
2022-09-12T22:34:48.773Z,19.3
2022-09-12T22:36:48.635Z,19.6
2022-09-12T22:38:59.694Z,19.6
2022-09-12T22:40:59.665Z,19.5
2022-09-12T22:42:59.659Z,19.5
2022-09-12T22:44:59.687Z,19.8
2022-09-12T22:46:59.781Z,20.0
2022-09-12T22:48:59.727Z,20.0
2022-09-12T22:50:59.680Z,20.1
2022-09-12T22:52:59.765Z,19.9
2022-09-12T22:54:59.689Z,19.9
2022-09-12T22:56:59.702Z,20.1
2022-09-12T22:58:59.716Z,20.0
2022-09-12T23:00:59.807Z,20.2
2022-09-12T23:02:59.753Z,20.4
2022-09-12T23:04:59.731Z,20.2
2022-09-12T23:06:59.727Z,20.2
2022-09-12T23:08:59.712Z,20.3
2022-09-12T23:10:59.702Z,20.4
2022-09-12T23:12:59.685Z,20.4
2022-09-12T23:14:59.713Z,20.6
2022-09-12T23:16:59.747Z,20.6
2022-09-12T23:18:59.712Z,20.7
2022-09-12T23:20:59.707Z,20.8
2022-09-12T23:22:59.721Z,20.8
2022-09-12T23:24:59.694Z,20.8
2022-09-12T23:26:59.745Z,20.7
2022-09-12T23:28:59.739Z,20.8
2022-09-12T23:30:59.861Z,20.9
2022-09-12T23:32:59.863Z,21.0
2022-09-12T23:34:59.728Z,21.0
2022-09-12T23:36:59.720Z,20.6
2022-09-12T23:38:59.743Z,20.6
2022-09-12T23:40:59.779Z,20.8
2022-09-12T23:42:59.725Z,20.9
2022-09-12T23:44:59.744Z,20.7
2022-09-12T23:46:59.850Z,20.6
2022-09-12T23:48:59.746Z,20.4
2022-09-12T23:50:59.728Z,20.5
2022-09-12T23:52:59.838Z,20.6
2022-09-12T23:54:59.710Z,20.7
2022-09-12T23:56:59.780Z,20.6
2022-09-12T23:59:29.745Z,20.6
